首页
METAR-TAF:

METAR-TAF

机场 :

Havre City-County Airport

哈佛, 蒙大拿州, 美国

纬度: 48-32-34N, 经度: 109-45-48W, 海拔: 789米

当前天气观测

该预报发布于55分钟前的16:53 UTC
风速3节,风向西
温度 25°C
湿度 57%
气压 1023 hPa
能見度: 16.1公里
天空无云

METAR: KHVR 211653Z AUTO 26003KT 10SM CLR 25/16 A3022 RMK AO2 SLP218 T02500156

时间: 11:48 (17:48 UTC)

预报

该预报发布于28分钟前的17:20 UTC
预报有效从21日的 18点(UTC)到 22日的 18点(UTC)
风速6节,风向多变
能見度: 10公里
少量云层高于25000英尺

TAF: KHVR 211720Z 2118/2218 VRB06KT P6SM FEW250

超过4000个机场的气象观测和天气预报(METAR&TAF报告)。

可查询的气象台以黄色和红色小点在地图上表示。

将鼠标移到小点上方,可查看气象台名称。

然后点击查看天气观测和预报。

如需切换地图:点击带黑十字的绿色按钮放大地图;点击带横线的绿色按钮缩小地图;或者点击绿色箭头查看邻近地区的地图。


METAR-TAF: